createdAt,value
2019-03-18T00:00:14.398Z,90.36
2019-03-18T00:05:16.999Z,90.23
2019-03-18T00:10:01.227Z,90.23
2019-03-18T00:15:02.427Z,90.2
2019-03-18T00:20:20.150Z,90.26
2019-03-18T00:25:12.620Z,90.26
2019-03-18T00:30:10.388Z,90.25
2019-03-18T00:35:10.698Z,90.54
2019-03-18T00:40:17.084Z,90.81
2019-03-18T00:45:20.978Z,90.94
2019-03-18T00:50:16.920Z,91.69
2019-03-18T00:55:15.105Z,92.03
2019-03-18T01:00:12.918Z,92.04
2019-03-18T01:05:15.473Z,92.48
2019-03-18T01:10:10.569Z,92.83
2019-03-18T01:15:27.093Z,93.05
2019-03-18T01:20:17.578Z,93.41
2019-03-18T01:25:17.850Z,93.88
2019-03-18T01:30:09.475Z,94.06
2019-03-18T01:35:13.726Z,93.78
2019-03-18T01:40:10.043Z,93.83
2019-03-18T01:45:07.619Z,93.64
2019-03-18T01:50:17.421Z,93.71
2019-03-18T01:55:15.170Z,93.47
2019-03-18T02:00:12.962Z,93.26
2019-03-18T02:05:10.349Z,92.55
2019-03-18T02:10:12.777Z,92.71
2019-03-18T02:15:06.000Z,92.74
2019-03-18T02:20:11.002Z,92.57
2019-03-18T02:25:14.945Z,93.13
2019-03-18T02:30:12.311Z,93.37
2019-03-18T02:35:11.784Z,93.31
2019-03-18T02:40:11.137Z,93.27
2019-03-18T02:45:13.491Z,93.58
2019-03-18T02:50:16.713Z,93.61
2019-03-18T02:55:18.639Z,93.72
2019-03-18T03:00:15.662Z,93.7
2019-03-18T03:05:12.186Z,93.45
2019-03-18T03:10:07.580Z,93.15
2019-03-18T03:15:17.539Z,92.8
2019-03-18T03:20:13.672Z,93.32
2019-03-18T03:25:10.579Z,92.71
2019-03-18T03:30:12.591Z,92.56
2019-03-18T03:35:21.117Z,92.84
2019-03-18T03:40:20.426Z,92.79
2019-03-18T03:45:16.343Z,92.47
2019-03-18T03:50:18.387Z,92.65
2019-03-18T03:55:20.707Z,92.37
2019-03-18T04:00:16.338Z,92.13
2019-03-18T04:05:16.589Z,92.23
2019-03-18T04:10:07.808Z,92.16
2019-03-18T04:15:14.444Z,92.29
2019-03-18T04:20:18.538Z,92.1
2019-03-18T04:25:21.346Z,92.34
2019-03-18T04:30:17.192Z,92.6
2019-03-18T04:35:18.838Z,92.97
2019-03-18T04:40:19.685Z,92.9
2019-03-18T04:45:14.805Z,92.82
2019-03-18T04:50:18.897Z,92.63
2019-03-18T04:55:08.202Z,92.32
2019-03-18T05:00:14.608Z,91.97
2019-03-18T05:05:23.943Z,91.77
2019-03-18T05:10:15.052Z,91.52
2019-03-18T05:15:14.516Z,91.74
2019-03-18T05:20:16.326Z,91.83
2019-03-18T05:25:21.360Z,91.52
2019-03-18T05:30:16.722Z,91.48
2019-03-18T05:35:16.885Z,91.19
2019-03-18T05:40:09.068Z,91.45
2019-03-18T05:45:07.585Z,91.13
2019-03-18T05:50:18.150Z,91.52
2019-03-18T05:55:19.535Z,91.76
2019-03-18T06:00:16.656Z,92.15
2019-03-18T06:05:12.737Z,92.39
2019-03-18T06:10:14.991Z,92.22
2019-03-18T06:15:16.818Z,92.45
2019-03-18T06:20:18.919Z,92.3
2019-03-18T06:25:14.221Z,92.42
2019-03-18T06:30:16.872Z,92.41
2019-03-18T06:35:15.823Z,92.83
2019-03-18T06:40:11.753Z,93.16
2019-03-18T06:45:14.834Z,93.36
2019-03-18T06:50:15.901Z,94.29
2019-03-18T06:55:16.133Z,94.75
2019-03-18T07:00:17.838Z,95.09
2019-03-18T07:05:17.928Z,95.12
2019-03-18T07:10:07.242Z,94.46
2019-03-18T07:15:11.897Z,94.3
2019-03-18T07:20:15.429Z,94.34
2019-03-18T07:25:17.061Z,93.58
2019-03-18T07:30:17.430Z,91.98
2019-03-18T07:35:14.235Z,90.7
2019-03-18T07:40:16.966Z,90.9
2019-03-18T07:45:10.443Z,90.48
2019-03-18T07:50:16.330Z,90.67
2019-03-18T07:55:16.368Z,89.14
2019-03-18T08:00:15.754Z,87.88
2019-03-18T08:05:18.660Z,86.82
2019-03-18T08:10:11.582Z,87.1
2019-03-18T08:15:12.501Z,87.61
2019-03-18T08:20:16.769Z,87.59
2019-03-18T08:25:15.051Z,87.77
2019-03-18T08:30:12.866Z,87.58
2019-03-18T08:35:14.269Z,88.84
2019-03-18T08:40:14.331Z,88.3
2019-03-18T08:45:12.384Z,85.43
2019-03-18T08:50:12.965Z,84.66
2019-03-18T08:55:12.999Z,84.29
2019-03-18T09:00:10.979Z,85.88
2019-03-18T09:05:12.319Z,84.19
2019-03-18T09:10:05.048Z,85.04
2019-03-18T09:15:09.213Z,83.02
2019-03-18T09:20:10.560Z,80.01
2019-03-18T09:25:11.636Z,79.8
2019-03-18T09:30:11.613Z,78.98
2019-03-18T09:35:15.235Z,79.21
2019-03-18T09:40:13.115Z,81.67
2019-03-18T09:45:12.880Z,87.52
2019-03-18T09:50:18.259Z,91.01
2019-03-18T09:55:18.514Z,93.67
2019-03-18T10:00:12.207Z,95.67
2019-03-18T10:05:14.077Z,96.38
2019-03-18T10:10:13.749Z,97.63
2019-03-18T10:15:06.922Z,98.2
2019-03-18T10:20:15.846Z,97.97
2019-03-18T10:25:17.521Z,97.12
2019-03-18T10:30:14.781Z,96.82
2019-03-18T10:35:18.806Z,97.54
2019-03-18T10:40:14.776Z,97.21
2019-03-18T10:45:16.035Z,97.37
2019-03-18T10:50:15.419Z,95.99
2019-03-18T10:55:11.981Z,93.92
2019-03-18T11:00:14.561Z,95.16
2019-03-18T11:05:16.585Z,95.86
2019-03-18T11:10:09.281Z,95.13
2019-03-18T11:15:14.044Z,94.7
2019-03-18T11:20:20.448Z,93.44
2019-03-18T11:25:07.194Z,94.07
2019-03-18T11:30:07.903Z,93.95
2019-03-18T11:35:08.931Z,92.48
2019-03-18T11:40:06.423Z,87.6
2019-03-18T11:45:08.224Z,87.27
2019-03-18T11:50:15.204Z,84.69
2019-03-18T11:55:09.134Z,82.41
2019-03-18T12:00:13.274Z,81.75
2019-03-18T12:05:14.084Z,80.28
2019-03-18T12:10:18.579Z,78.52
2019-03-18T12:15:11.307Z,79.52
2019-03-18T12:20:23.977Z,79.77
2019-03-18T12:25:11.802Z,82.15
2019-03-18T12:30:11.574Z,84.31
2019-03-18T12:35:11.257Z,85.69
2019-03-18T12:40:09.992Z,83.39
2019-03-18T12:45:15.856Z,83.66
2019-03-18T12:50:36.251Z,77.97
2019-03-18T12:55:12.053Z,75.33
2019-03-18T13:00:12.165Z,75.49
2019-03-18T13:05:14.294Z,75.34
2019-03-18T13:10:13.876Z,75.55
2019-03-18T13:15:14.341Z,73.75
2019-03-18T13:20:18.368Z,73.57
2019-03-18T13:25:09.731Z,71.4
2019-03-18T13:30:10.194Z,72.25
2019-03-18T13:35:12.058Z,72.07
2019-03-18T13:40:11.544Z,71.31
2019-03-18T13:45:09.950Z,69.55
2019-03-18T13:50:16.194Z,69.98
2019-03-18T13:55:18.799Z,69.99
2019-03-18T14:00:11.707Z,69.32
2019-03-18T14:05:12.341Z,70.61
2019-03-18T14:10:12.002Z,72.35
2019-03-18T14:15:08.561Z,73.17
2019-03-18T14:20:12.192Z,72.72
2019-03-18T14:25:07.169Z,69.16
2019-03-18T14:30:18.241Z,68.73
2019-03-18T14:35:14.877Z,69.37
2019-03-18T14:40:18.275Z,75.45
2019-03-18T14:45:12.891Z,78
2019-03-18T14:50:17.341Z,79.53
2019-03-18T14:55:12.650Z,80.73
2019-03-18T15:00:14.701Z,80.8
2019-03-18T15:05:18.095Z,81.35
2019-03-18T15:10:17.255Z,83.18
2019-03-18T15:15:14.910Z,81.28
2019-03-18T15:20:16.464Z,81.31
2019-03-18T15:25:14.447Z,80.23
2019-03-18T15:30:09.821Z,78.92
2019-03-18T15:35:15.156Z,76.39
2019-03-18T15:40:15.941Z,75.23
2019-03-18T15:45:14.533Z,74.05
2019-03-18T15:50:13.068Z,73.39
2019-03-18T15:55:11.774Z,71.46
2019-03-18T16:00:08.668Z,73.05
2019-03-18T16:05:11.536Z,72.02
2019-03-18T16:10:15.019Z,73.08
2019-03-18T16:15:12.523Z,72.28
2019-03-18T16:20:14.182Z,72.69
2019-03-18T16:25:18.582Z,74.57
2019-03-18T16:30:15.383Z,74.7
2019-03-18T16:35:19.297Z,74.49
2019-03-18T16:40:11.769Z,77.28
2019-03-18T16:45:07.619Z,77.58
2019-03-18T16:50:11.296Z,76.74
2019-03-18T16:55:13.579Z,76.7
2019-03-18T17:00:14.085Z,77.15
2019-03-18T17:05:18.981Z,78.02
2019-03-18T17:10:17.987Z,78.1
2019-03-18T17:15:11.610Z,78.65
2019-03-18T17:20:15.133Z,79.87
2019-03-18T17:25:14.482Z,79.8
2019-03-18T17:30:11.250Z,79.87
2019-03-18T17:35:18.010Z,80.02
2019-03-18T17:40:18.201Z,80.41
2019-03-18T17:45:08.573Z,81.02
2019-03-18T17:50:11.773Z,80.7
2019-03-18T17:55:12.158Z,81.41
2019-03-18T18:00:08.713Z,81.27
2019-03-18T18:05:12.801Z,81.29
2019-03-18T18:10:10.852Z,81.54
2019-03-18T18:15:12.889Z,81.91
2019-03-18T18:20:14.215Z,82.44
2019-03-18T18:25:13.610Z,82.34
2019-03-18T18:30:11.604Z,82.41
2019-03-18T18:35:14.477Z,82.34
2019-03-18T18:40:13.783Z,83.08
2019-03-18T18:45:14.230Z,83.31
2019-03-18T18:50:13.537Z,83.94
2019-03-18T18:55:12.221Z,84.16
2019-03-18T19:00:09.909Z,84.15
2019-03-18T19:05:12.264Z,84.61
2019-03-18T19:10:09.165Z,85.14
2019-03-18T19:15:09.582Z,85.95
2019-03-18T19:20:11.988Z,85.93
2019-03-18T19:25:10.202Z,86.31
2019-03-18T19:30:14.003Z,85.92
2019-03-18T19:35:10.172Z,86.18
2019-03-18T19:40:14.827Z,86.76
2019-03-18T19:45:15.689Z,86.4
2019-03-18T19:50:13.952Z,86.37
2019-03-18T19:55:13.164Z,86.24
2019-03-18T20:00:14.939Z,86.34
2019-03-18T20:05:20.686Z,86.29
2019-03-18T20:10:13.523Z,86.33
2019-03-18T20:15:08.756Z,86.88
2019-03-18T20:20:14.781Z,87.12
2019-03-18T20:25:16.482Z,87.65
2019-03-18T20:30:15.461Z,87.71
2019-03-18T20:35:14.538Z,87.81
2019-03-18T20:40:11.155Z,87.81
2019-03-18T20:45:11.055Z,88.61
2019-03-18T20:50:09.783Z,87.75
2019-03-18T20:55:11.799Z,87.58
2019-03-18T21:00:12.453Z,87.43
2019-03-18T21:05:13.733Z,87.88
2019-03-18T21:10:12.630Z,88.36
2019-03-18T21:15:11.619Z,88.45
2019-03-18T21:20:09.256Z,88.55
2019-03-18T21:25:10.812Z,88.43
2019-03-18T21:30:11.966Z,88.37
2019-03-18T21:35:08.984Z,87.85
2019-03-18T21:40:13.933Z,87.99
2019-03-18T21:45:12.621Z,87.86
2019-03-18T21:50:12.906Z,88.24
2019-03-18T21:55:12.400Z,88.15
2019-03-18T22:00:11.000Z,88.37
2019-03-18T22:05:10.358Z,88.49
2019-03-18T22:10:13.513Z,88.81
2019-03-18T22:15:09.299Z,88.87
2019-03-18T22:20:09.095Z,89.4
2019-03-18T22:25:11.638Z,89.94
2019-03-18T22:30:14.017Z,89.94
2019-03-18T22:35:10.570Z,89.42
2019-03-18T22:40:15.132Z,89.07
2019-03-18T22:45:14.213Z,87.97
2019-03-18T22:50:09.392Z,87.94
2019-03-18T22:55:11.470Z,88.04
2019-03-18T23:00:11.395Z,87.21
2019-03-18T23:05:06.855Z,87.24
2019-03-18T23:10:08.031Z,87.74
2019-03-18T23:15:07.752Z,87.43
2019-03-18T23:20:08.170Z,87.65
2019-03-18T23:25:15.619Z,88.1
2019-03-18T23:30:12.718Z,88.72
2019-03-18T23:35:10.264Z,89.04
2019-03-18T23:40:10.588Z,89.11
2019-03-18T23:45:11.900Z,89.38
2019-03-18T23:50:09.951Z,89.71
2019-03-18T23:55:25.175Z,90.04
